sensor_id;sensor_type;location;lat;lon;timestamp;temperature;humidity
42339;DHT22;27993;45.392;10.918;2023-02-01T00:02:17;3.20;99.90
42339;DHT22;27993;45.392;10.918;2023-02-01T00:04:47;3.30;99.90
42339;DHT22;27993;45.392;10.918;2023-02-01T00:07:18;3.30;99.90
42339;DHT22;27993;45.392;10.918;2023-02-01T00:09:48;2.90;99.90
42339;DHT22;27993;45.392;10.918;2023-02-01T00:12:19;3.10;99.90
42339;DHT22;27993;45.392;10.918;2023-02-01T00:14:50;3.20;99.90
42339;DHT22;27993;45.392;10.918;2023-02-01T00:17:20;3.20;99.90
42339;DHT22;27993;45.392;10.918;2023-02-01T00:19:51;3.30;99.90
42339;DHT22;27993;45.392;10.918;2023-02-01T00:22:21;2.90;99.90
42339;DHT22;27993;45.392;10.918;2023-02-01T00:24:52;2.80;99.90
42339;DHT22;27993;45.392;10.918;2023-02-01T00:27:23;2.80;99.90
42339;DHT22;27993;45.392;10.918;2023-02-01T00:29:56;2.90;99.90
42339;DHT22;27993;45.392;10.918;2023-02-01T00:32:27;2.60;99.90
42339;DHT22;27993;45.392;10.918;2023-02-01T00:35:02;2.80;99.90
42339;DHT22;27993;45.392;10.918;2023-02-01T00:37:32;2.70;99.90
42339;DHT22;27993;45.392;10.918;2023-02-01T00:40:03;2.60;99.90
42339;DHT22;27993;45.392;10.918;2023-02-01T00:42:34;2.70;99.90
42339;DHT22;27993;45.392;10.918;2023-02-01T00:45:05;2.80;99.90
42339;DHT22;27993;45.392;10.918;2023-02-01T00:47:36;2.90;99.90
42339;DHT22;27993;45.392;10.918;2023-02-01T00:50:10;2.80;99.90
42339;DHT22;27993;45.392;10.918;2023-02-01T00:52:40;2.80;99.90
42339;DHT22;27993;45.392;10.918;2023-02-01T00:55:11;2.80;99.90
42339;DHT22;27993;45.392;10.918;2023-02-01T00:57:42;2.90;99.90
42339;DHT22;27993;45.392;10.918;2023-02-01T01:00:13;2.90;99.90
42339;DHT22;27993;45.392;10.918;2023-02-01T01:02:43;2.90;99.90
42339;DHT22;27993;45.392;10.918;2023-02-01T01:05:14;3.00;99.90
42339;DHT22;27993;45.392;10.918;2023-02-01T01:07:45;3.10;99.90
42339;DHT22;27993;45.392;10.918;2023-02-01T01:10:15;2.80;99.90
42339;DHT22;27993;45.392;10.918;2023-02-01T01:12:46;2.60;99.90
42339;DHT22;27993;45.392;10.918;2023-02-01T01:15:17;2.50;99.90
42339;DHT22;27993;45.392;10.918;2023-02-01T01:17:47;2.40;99.90
42339;DHT22;27993;45.392;10.918;2023-02-01T01:20:18;2.30;99.90
42339;DHT22;27993;45.392;10.918;2023-02-01T01:22:51;2.50;99.90
42339;DHT22;27993;45.392;10.918;2023-02-01T01:25:22;2.60;99.90
42339;DHT22;27993;45.392;10.918;2023-02-01T01:27:53;2.70;99.90
42339;DHT22;27993;45.392;10.918;2023-02-01T01:30:23;2.80;99.90
42339;DHT22;27993;45.392;10.918;2023-02-01T01:32:54;2.90;99.90
42339;DHT22;27993;45.392;10.918;2023-02-01T01:35:25;2.90;99.90
42339;DHT22;27993;45.392;10.918;2023-02-01T01:37:55;2.90;99.90
42339;DHT22;27993;45.392;10.918;2023-02-01T01:40:27;2.90;99.90
42339;DHT22;27993;45.392;10.918;2023-02-01T01:42:58;2.90;99.90
42339;DHT22;27993;45.392;10.918;2023-02-01T01:45:35;2.90;99.90
42339;DHT22;27993;45.392;10.918;2023-02-01T01:48:24;2.90;99.90
42339;DHT22;27993;45.392;10.918;2023-02-01T01:51:05;2.70;99.90
42339;DHT22;27993;45.392;10.918;2023-02-01T01:53:42;2.60;99.90
42339;DHT22;27993;45.392;10.918;2023-02-01T01:56:14;2.70;99.90
42339;DHT22;27993;45.392;10.918;2023-02-01T01:58:45;2.70;99.90
42339;DHT22;27993;45.392;10.918;2023-02-01T02:01:16;2.70;99.90
42339;DHT22;27993;45.392;10.918;2023-02-01T02:03:47;2.70;99.90
42339;DHT22;27993;45.392;10.918;2023-02-01T02:06:37;2.60;99.90
42339;DHT22;27993;45.392;10.918;2023-02-01T02:09:09;2.70;99.90
42339;DHT22;27993;45.392;10.918;2023-02-01T02:11:40;2.70;99.90
42339;DHT22;27993;45.392;10.918;2023-02-01T02:14:13;2.50;99.90
42339;DHT22;27993;45.392;10.918;2023-02-01T02:34:57;2.10;99.90
42339;DHT22;27993;45.392;10.918;2023-02-01T02:37:46;2.20;99.90
42339;DHT22;27993;45.392;10.918;2023-02-01T02:40:32;2.00;99.90
42339;DHT22;27993;45.392;10.918;2023-02-01T02:43:29;2.20;99.90
42339;DHT22;27993;45.392;10.918;2023-02-01T02:46:28;2.30;99.90
42339;DHT22;27993;45.392;10.918;2023-02-01T02:49:27;2.30;99.90
42339;DHT22;27993;45.392;10.918;2023-02-01T02:52:12;2.30;99.90
42339;DHT22;27993;45.392;10.918;2023-02-01T02:55:04;2.40;99.90
42339;DHT22;27993;45.392;10.918;2023-02-01T02:57:40;2.40;99.90
42339;DHT22;27993;45.392;10.918;2023-02-01T03:00:32;2.40;99.90
42339;DHT22;27993;45.392;10.918;2023-02-01T03:03:22;2.40;99.90
42339;DHT22;27993;45.392;10.918;2023-02-01T03:06:16;2.50;99.90
42339;DHT22;27993;45.392;10.918;2023-02-01T03:08:49;2.40;99.90
42339;DHT22;27993;45.392;10.918;2023-02-01T03:11:24;2.40;99.90
42339;DHT22;27993;45.392;10.918;2023-02-01T03:14:16;2.50;99.90
42339;DHT22;27993;45.392;10.918;2023-02-01T03:16:58;2.40;99.90
42339;DHT22;27993;45.392;10.918;2023-02-01T03:19:43;2.40;99.90
42339;DHT22;27993;45.392;10.918;2023-02-01T03:22:24;2.40;99.90
42339;DHT22;27993;45.392;10.918;2023-02-01T03:25:03;2.40;99.90
42339;DHT22;27993;45.392;10.918;2023-02-01T03:27:47;2.40;99.90
42339;DHT22;27993;45.392;10.918;2023-02-01T03:32:59;2.30;99.90
42339;DHT22;27993;45.392;10.918;2023-02-01T03:35:54;2.40;99.90
42339;DHT22;27993;45.392;10.918;2023-02-01T03:44:12;2.30;99.90
42339;DHT22;27993;45.392;10.918;2023-02-01T03:49:29;2.50;99.90
42339;DHT22;27993;45.392;10.918;2023-02-01T03:52:01;2.50;99.90
42339;DHT22;27993;45.392;10.918;2023-02-01T03:54:32;2.40;99.90
42339;DHT22;27993;45.392;10.918;2023-02-01T03:57:08;2.30;99.90
42339;DHT22;27993;45.392;10.918;2023-02-01T03:59:46;2.10;99.90
42339;DHT22;27993;45.392;10.918;2023-02-01T04:02:16;2.10;99.90
42339;DHT22;27993;45.392;10.918;2023-02-01T04:04:47;2.20;99.90
42339;DHT22;27993;45.392;10.918;2023-02-01T04:07:18;2.20;99.90
42339;DHT22;27993;45.392;10.918;2023-02-01T04:09:49;2.00;99.90
42339;DHT22;27993;45.392;10.918;2023-02-01T04:12:19;2.20;99.90
42339;DHT22;27993;45.392;10.918;2023-02-01T04:14:50;2.40;99.90
42339;DHT22;27993;45.392;10.918;2023-02-01T04:17:20;2.30;99.90
42339;DHT22;27993;45.392;10.918;2023-02-01T04:19:51;2.00;99.90
42339;DHT22;27993;45.392;10.918;2023-02-01T04:22:22;1.70;99.90
42339;DHT22;27993;45.392;10.918;2023-02-01T04:24:52;1.80;99.90
42339;DHT22;27993;45.392;10.918;2023-02-01T04:27:23;1.80;99.90
42339;DHT22;27993;45.392;10.918;2023-02-01T04:29:54;1.90;99.90
42339;DHT22;27993;45.392;10.918;2023-02-01T04:32:24;2.00;99.90
42339;DHT22;27993;45.392;10.918;2023-02-01T04:34:55;2.00;99.90
42339;DHT22;27993;45.392;10.918;2023-02-01T04:37:25;2.00;99.90
42339;DHT22;27993;45.392;10.918;2023-02-01T04:39:56;2.10;99.90
42339;DHT22;27993;45.392;10.918;2023-02-01T04:42:27;2.10;99.90
42339;DHT22;27993;45.392;10.918;2023-02-01T04:44:58;1.80;99.90
42339;DHT22;27993;45.392;10.918;2023-02-01T04:47:28;1.50;99.90
42339;DHT22;27993;45.392;10.918;2023-02-01T04:49:59;1.70;99.90
42339;DHT22;27993;45.392;10.918;2023-02-01T04:52:29;1.80;99.90
42339;DHT22;27993;45.392;10.918;2023-02-01T04:55:00;1.80;99.90
42339;DHT22;27993;45.392;10.918;2023-02-01T04:57:32;1.80;99.90
42339;DHT22;27993;45.392;10.918;2023-02-01T05:00:04;1.80;99.90
42339;DHT22;27993;45.392;10.918;2023-02-01T05:02:35;1.80;99.90
42339;DHT22;27993;45.392;10.918;2023-02-01T05:05:06;1.90;99.90
42339;DHT22;27993;45.392;10.918;2023-02-01T05:07:36;2.00;99.90
42339;DHT22;27993;45.392;10.918;2023-02-01T05:10:08;2.00;99.90
42339;DHT22;27993;45.392;10.918;2023-02-01T05:12:38;2.00;99.90
42339;DHT22;27993;45.392;10.918;2023-02-01T05:15:28;2.00;99.90
42339;DHT22;27993;45.392;10.918;2023-02-01T05:17:59;2.00;99.90
42339;DHT22;27993;45.392;10.918;2023-02-01T05:20:30;1.60;99.90
42339;DHT22;27993;45.392;10.918;2023-02-01T05:23:00;1.80;99.90
42339;DHT22;27993;45.392;10.918;2023-02-01T05:25:31;1.80;99.90
42339;DHT22;27993;45.392;10.918;2023-02-01T05:28:02;1.90;99.90
42339;DHT22;27993;45.392;10.918;2023-02-01T05:30:32;2.00;99.90
42339;DHT22;27993;45.392;10.918;2023-02-01T05:33:05;2.10;99.90
42339;DHT22;27993;45.392;10.918;2023-02-01T05:35:36;2.10;99.90
42339;DHT22;27993;45.392;10.918;2023-02-01T05:38:06;2.10;99.90
42339;DHT22;27993;45.392;10.918;2023-02-01T05:40:37;2.10;99.90
42339;DHT22;27993;45.392;10.918;2023-02-01T05:43:08;2.20;99.90
42339;DHT22;27993;45.392;10.918;2023-02-01T05:45:38;2.20;99.90
42339;DHT22;27993;45.392;10.918;2023-02-01T05:48:09;2.20;99.90
42339;DHT22;27993;45.392;10.918;2023-02-01T05:50:40;2.20;99.90
42339;DHT22;27993;45.392;10.918;2023-02-01T05:53:10;2.20;99.90
42339;DHT22;27993;45.392;10.918;2023-02-01T05:55:42;2.20;99.90
42339;DHT22;27993;45.392;10.918;2023-02-01T05:58:12;2.10;99.90
42339;DHT22;27993;45.392;10.918;2023-02-01T06:00:43;2.00;99.90
42339;DHT22;27993;45.392;10.918;2023-02-01T06:03:13;1.90;99.90
42339;DHT22;27993;45.392;10.918;2023-02-01T06:05:45;1.90;99.90
42339;DHT22;27993;45.392;10.918;2023-02-01T06:08:16;1.90;99.90
42339;DHT22;27993;45.392;10.918;2023-02-01T06:10:47;2.00;99.90
42339;DHT22;27993;45.392;10.918;2023-02-01T06:13:18;2.00;99.90
42339;DHT22;27993;45.392;10.918;2023-02-01T06:15:50;2.00;99.90
42339;DHT22;27993;45.392;10.918;2023-02-01T06:18:21;2.00;99.90
42339;DHT22;27993;45.392;10.918;2023-02-01T06:20:56;2.10;99.90
42339;DHT22;27993;45.392;10.918;2023-02-01T06:23:27;2.10;99.90
42339;DHT22;27993;45.392;10.918;2023-02-01T06:26:00;2.10;99.90
42339;DHT22;27993;45.392;10.918;2023-02-01T06:28:32;2.20;99.90
42339;DHT22;27993;45.392;10.918;2023-02-01T06:31:06;2.10;99.90
42339;DHT22;27993;45.392;10.918;2023-02-01T06:33:39;2.10;99.90
42339;DHT22;27993;45.392;10.918;2023-02-01T06:36:10;2.10;99.90
42339;DHT22;27993;45.392;10.918;2023-02-01T06:38:42;2.00;99.90
42339;DHT22;27993;45.392;10.918;2023-02-01T06:41:13;2.00;99.90
42339;DHT22;27993;45.392;10.918;2023-02-01T06:43:44;1.90;99.90
42339;DHT22;27993;45.392;10.918;2023-02-01T06:46:15;2.10;99.90
42339;DHT22;27993;45.392;10.918;2023-02-01T06:48:46;2.00;99.90
42339;DHT22;27993;45.392;10.918;2023-02-01T06:51:25;2.10;99.90
42339;DHT22;27993;45.392;10.918;2023-02-01T06:53:56;2.20;99.90
42339;DHT22;27993;45.392;10.918;2023-02-01T06:56:27;2.40;99.90
42339;DHT22;27993;45.392;10.918;2023-02-01T06:58:58;2.40;99.90
42339;DHT22;27993;45.392;10.918;2023-02-01T07:01:29;2.60;99.90
42339;DHT22;27993;45.392;10.918;2023-02-01T07:03:59;2.60;99.90
42339;DHT22;27993;45.392;10.918;2023-02-01T07:06:30;2.60;99.90
42339;DHT22;27993;45.392;10.918;2023-02-01T07:09:01;2.40;99.90
42339;DHT22;27993;45.392;10.918;2023-02-01T07:11:32;2.50;99.90
42339;DHT22;27993;45.392;10.918;2023-02-01T07:14:02;2.30;99.90
42339;DHT22;27993;45.392;10.918;2023-02-01T07:16:33;2.30;99.90
42339;DHT22;27993;45.392;10.918;2023-02-01T07:19:04;2.60;99.90
42339;DHT22;27993;45.392;10.918;2023-02-01T07:21:34;2.90;99.90
42339;DHT22;27993;45.392;10.918;2023-02-01T07:24:05;3.10;99.90
42339;DHT22;27993;45.392;10.918;2023-02-01T07:26:39;3.40;99.90
42339;DHT22;27993;45.392;10.918;2023-02-01T07:29:10;3.70;99.90
42339;DHT22;27993;45.392;10.918;2023-02-01T07:31:40;3.80;99.90
42339;DHT22;27993;45.392;10.918;2023-02-01T07:34:11;4.00;99.90
42339;DHT22;27993;45.392;10.918;2023-02-01T07:36:42;4.00;99.90
42339;DHT22;27993;45.392;10.918;2023-02-01T07:39:12;4.10;99.90
42339;DHT22;27993;45.392;10.918;2023-02-01T07:41:43;3.30;99.90
42339;DHT22;27993;45.392;10.918;2023-02-01T07:44:14;3.20;99.90
42339;DHT22;27993;45.392;10.918;2023-02-01T07:46:44;3.40;99.90
42339;DHT22;27993;45.392;10.918;2023-02-01T07:49:15;3.90;99.90
42339;DHT22;27993;45.392;10.918;2023-02-01T07:51:47;3.80;99.90
42339;DHT22;27993;45.392;10.918;2023-02-01T07:54:18;4.00;99.90
42339;DHT22;27993;45.392;10.918;2023-02-01T07:56:49;4.60;99.90
42339;DHT22;27993;45.392;10.918;2023-02-01T07:59:19;4.90;99.90
42339;DHT22;27993;45.392;10.918;2023-02-01T08:01:50;5.20;99.90
42339;DHT22;27993;45.392;10.918;2023-02-01T08:04:20;5.40;99.90
42339;DHT22;27993;45.392;10.918;2023-02-01T08:06:51;6.00;99.90
42339;DHT22;27993;45.392;10.918;2023-02-01T08:09:22;6.40;99.90
42339;DHT22;27993;45.392;10.918;2023-02-01T08:11:52;6.60;99.90
42339;DHT22;27993;45.392;10.918;2023-02-01T08:14:23;6.70;99.90
42339;DHT22;27993;45.392;10.918;2023-02-01T08:16:53;6.70;99.90
42339;DHT22;27993;45.392;10.918;2023-02-01T08:19:24;6.70;99.90
42339;DHT22;27993;45.392;10.918;2023-02-01T08:21:55;6.50;99.90
42339;DHT22;27993;45.392;10.918;2023-02-01T08:24:25;6.20;99.90
42339;DHT22;27993;45.392;10.918;2023-02-01T08:26:56;6.60;99.90
42339;DHT22;27993;45.392;10.918;2023-02-01T08:29:26;6.70;99.90
42339;DHT22;27993;45.392;10.918;2023-02-01T08:31:57;6.70;99.90
42339;DHT22;27993;45.392;10.918;2023-02-01T08:34:28;6.70;99.90
42339;DHT22;27993;45.392;10.918;2023-02-01T08:36:58;6.60;99.90
42339;DHT22;27993;45.392;10.918;2023-02-01T08:39:30;6.70;99.90
42339;DHT22;27993;45.392;10.918;2023-02-01T08:42:00;6.70;99.90
42339;DHT22;27993;45.392;10.918;2023-02-01T08:44:50;6.50;99.90
42339;DHT22;27993;45.392;10.918;2023-02-01T08:47:22;6.50;99.90
42339;DHT22;27993;45.392;10.918;2023-02-01T08:49:52;6.60;99.90
42339;DHT22;27993;45.392;10.918;2023-02-01T08:52:23;6.80;99.90
42339;DHT22;27993;45.392;10.918;2023-02-01T08:54:54;6.90;99.90
42339;DHT22;27993;45.392;10.918;2023-02-01T08:57:25;7.00;99.90
42339;DHT22;27993;45.392;10.918;2023-02-01T08:59:56;6.60;99.90
42339;DHT22;27993;45.392;10.918;2023-02-01T09:02:27;6.60;99.90
42339;DHT22;27993;45.392;10.918;2023-02-01T09:04:57;6.70;99.90
42339;DHT22;27993;45.392;10.918;2023-02-01T09:07:28;7.10;99.90
42339;DHT22;27993;45.392;10.918;2023-02-01T09:09:59;7.00;99.90
42339;DHT22;27993;45.392;10.918;2023-02-01T09:12:33;6.70;99.90
42339;DHT22;27993;45.392;10.918;2023-02-01T09:15:04;6.80;99.90
42339;DHT22;27993;45.392;10.918;2023-02-01T09:17:37;7.00;99.90
42339;DHT22;27993;45.392;10.918;2023-02-01T09:20:09;7.60;99.90
42339;DHT22;27993;45.392;10.918;2023-02-01T09:22:40;7.60;99.90
42339;DHT22;27993;45.392;10.918;2023-02-01T09:25:11;7.60;99.90
42339;DHT22;27993;45.392;10.918;2023-02-01T09:27:41;7.80;99.90
42339;DHT22;27993;45.392;10.918;2023-02-01T09:30:12;7.60;99.90
42339;DHT22;27993;45.392;10.918;2023-02-01T09:32:43;7.60;99.90
42339;DHT22;27993;45.392;10.918;2023-02-01T09:35:14;7.50;99.90
42339;DHT22;27993;45.392;10.918;2023-02-01T09:37:44;7.70;99.90
42339;DHT22;27993;45.392;10.918;2023-02-01T09:40:16;8.00;99.90
42339;DHT22;27993;45.392;10.918;2023-02-01T09:43:17;8.10;99.90
42339;DHT22;27993;45.392;10.918;2023-02-01T09:46:49;8.20;99.90
42339;DHT22;27993;45.392;10.918;2023-02-01T09:49:14;8.10;99.90
42339;DHT22;27993;45.392;10.918;2023-02-01T09:51:48;8.40;99.90
42339;DHT22;27993;45.392;10.918;2023-02-01T09:54:26;8.60;99.90
42339;DHT22;27993;45.392;10.918;2023-02-01T09:57:49;8.90;99.90
42339;DHT22;27993;45.392;10.918;2023-02-01T10:00:36;8.60;99.90
42339;DHT22;27993;45.392;10.918;2023-02-01T10:03:16;9.20;99.90
42339;DHT22;27993;45.392;10.918;2023-02-01T10:06:13;9.40;99.90
42339;DHT22;27993;45.392;10.918;2023-02-01T10:08:56;9.90;99.90
42339;DHT22;27993;45.392;10.918;2023-02-01T10:22:45;9.50;99.90
42339;DHT22;27993;45.392;10.918;2023-02-01T10:27:47;9.80;99.90
42339;DHT22;27993;45.392;10.918;2023-02-01T10:30:22;9.20;99.90
42339;DHT22;27993;45.392;10.918;2023-02-01T10:33:01;9.20;99.90
42339;DHT22;27993;45.392;10.918;2023-02-01T10:35:36;9.00;99.90
42339;DHT22;27993;45.392;10.918;2023-02-01T10:38:22;9.10;99.90
42339;DHT22;27993;45.392;10.918;2023-02-01T10:41:01;9.00;99.90
42339;DHT22;27993;45.392;10.918;2023-02-01T10:43:33;9.10;99.90
42339;DHT22;27993;45.392;10.918;2023-02-01T10:46:04;9.00;99.90
42339;DHT22;27993;45.392;10.918;2023-02-01T10:48:36;9.10;99.90
42339;DHT22;27993;45.392;10.918;2023-02-01T10:51:14;9.10;99.90
42339;DHT22;27993;45.392;10.918;2023-02-01T10:53:53;9.00;99.90
42339;DHT22;27993;45.392;10.918;2023-02-01T10:56:27;9.80;99.90
42339;DHT22;27993;45.392;10.918;2023-02-01T10:59:06;13.20;99.90
42339;DHT22;27993;45.392;10.918;2023-02-01T11:01:41;14.50;99.90
42339;DHT22;27993;45.392;10.918;2023-02-01T11:04:17;15.40;99.90
42339;DHT22;27993;45.392;10.918;2023-02-01T11:09:58;17.00;99.90
42339;DHT22;27993;45.392;10.918;2023-02-01T11:12:35;17.30;99.90
42339;DHT22;27993;45.392;10.918;2023-02-01T11:15:17;17.50;99.90
42339;DHT22;27993;45.392;10.918;2023-02-01T11:17:50;17.30;99.90
42339;DHT22;27993;45.392;10.918;2023-02-01T11:20:38;16.90;99.90
42339;DHT22;27993;45.392;10.918;2023-02-01T11:23:17;15.70;99.90
42339;DHT22;27993;45.392;10.918;2023-02-01T11:25:54;14.80;99.90
42339;DHT22;27993;45.392;10.918;2023-02-01T11:28:29;14.00;99.90
42339;DHT22;27993;45.392;10.918;2023-02-01T11:31:04;13.10;99.90
42339;DHT22;27993;45.392;10.918;2023-02-01T11:33:45;12.80;99.90
42339;DHT22;27993;45.392;10.918;2023-02-01T11:36:24;12.80;99.90
42339;DHT22;27993;45.392;10.918;2023-02-01T11:49:57;12.40;99.90
42339;DHT22;27993;45.392;10.918;2023-02-01T12:11:48;10.90;99.90
42339;DHT22;27993;45.392;10.918;2023-02-01T12:22:55;11.30;99.90
42339;DHT22;27993;45.392;10.918;2023-02-01T12:25:51;11.50;99.90
42339;DHT22;27993;45.392;10.918;2023-02-01T12:34:21;11.70;99.90
42339;DHT22;27993;45.392;10.918;2023-02-01T12:39:46;11.50;99.90
42339;DHT22;27993;45.392;10.918;2023-02-01T12:42:24;11.60;99.90
42339;DHT22;27993;45.392;10.918;2023-02-01T12:45:02;11.70;99.90
42339;DHT22;27993;45.392;10.918;2023-02-01T12:47:44;11.50;99.90
42339;DHT22;27993;45.392;10.918;2023-02-01T12:52:57;11.70;99.90
42339;DHT22;27993;45.392;10.918;2023-02-01T12:55:38;10.20;99.90
42339;DHT22;27993;45.392;10.918;2023-02-01T12:58:24;9.40;99.90
42339;DHT22;27993;45.392;10.918;2023-02-01T13:01:12;9.40;99.90
42339;DHT22;27993;45.392;10.918;2023-02-01T13:03:50;9.30;99.90
42339;DHT22;27993;45.392;10.918;2023-02-01T13:09:24;9.60;99.90
42339;DHT22;27993;45.392;10.918;2023-02-01T13:11:57;9.90;99.90
42339;DHT22;27993;45.392;10.918;2023-02-01T13:17:22;9.60;99.90
42339;DHT22;27993;45.392;10.918;2023-02-01T13:19:59;9.80;99.90
42339;DHT22;27993;45.392;10.918;2023-02-01T13:22:46;9.80;99.90
42339;DHT22;27993;45.392;10.918;2023-02-01T13:25:50;9.90;99.90
42339;DHT22;27993;45.392;10.918;2023-02-01T13:28:51;9.80;99.90
42339;DHT22;27993;45.392;10.918;2023-02-01T13:31:34;10.20;99.90
42339;DHT22;27993;45.392;10.918;2023-02-01T13:34:37;10.10;99.90
42339;DHT22;27993;45.392;10.918;2023-02-01T13:43:00;9.80;99.90
42339;DHT22;27993;45.392;10.918;2023-02-01T13:45:35;9.80;99.90
42339;DHT22;27993;45.392;10.918;2023-02-01T13:48:19;9.70;99.90
42339;DHT22;27993;45.392;10.918;2023-02-01T13:50:56;11.40;99.90
42339;DHT22;27993;45.392;10.918;2023-02-01T13:53:29;13.00;99.90
42339;DHT22;27993;45.392;10.918;2023-02-01T13:56:01;13.60;99.90
42339;DHT22;27993;45.392;10.918;2023-02-01T13:58:36;13.80;99.90
42339;DHT22;27993;45.392;10.918;2023-02-01T14:03:55;14.40;99.90
42339;DHT22;27993;45.392;10.918;2023-02-01T14:19:32;14.10;99.90
42339;DHT22;27993;45.392;10.918;2023-02-01T14:24:56;13.80;99.90
42339;DHT22;27993;45.392;10.918;2023-02-01T14:27:30;13.60;99.90
42339;DHT22;27993;45.392;10.918;2023-02-01T14:30:07;13.40;99.90
42339;DHT22;27993;45.392;10.918;2023-02-01T14:32:39;13.40;99.90
42339;DHT22;27993;45.392;10.918;2023-02-01T14:35:20;13.20;99.90
42339;DHT22;27993;45.392;10.918;2023-02-01T14:37:54;13.20;99.90
42339;DHT22;27993;45.392;10.918;2023-02-01T14:40:29;13.10;99.90
42339;DHT22;27993;45.392;10.918;2023-02-01T14:43:00;13.00;99.90
42339;DHT22;27993;45.392;10.918;2023-02-01T14:50:43;12.60;99.90
42339;DHT22;27993;45.392;10.918;2023-02-01T14:56:26;12.20;99.90
42339;DHT22;27993;45.392;10.918;2023-02-01T14:58:59;12.20;99.90
42339;DHT22;27993;45.392;10.918;2023-02-01T15:01:36;12.10;99.90
42339;DHT22;27993;45.392;10.918;2023-02-01T15:04:10;12.00;99.90
42339;DHT22;27993;45.392;10.918;2023-02-01T15:09:31;11.90;99.90
42339;DHT22;27993;45.392;10.918;2023-02-01T15:14:47;11.70;99.90
42339;DHT22;27993;45.392;10.918;2023-02-01T15:17:22;11.70;99.90
42339;DHT22;27993;45.392;10.918;2023-02-01T15:19:57;11.60;99.90
42339;DHT22;27993;45.392;10.918;2023-02-01T15:22:29;11.50;99.90
42339;DHT22;27993;45.392;10.918;2023-02-01T15:25:00;11.40;99.90
42339;DHT22;27993;45.392;10.918;2023-02-01T15:27:32;11.50;99.90
42339;DHT22;27993;45.392;10.918;2023-02-01T15:30:21;11.40;99.90
42339;DHT22;27993;45.392;10.918;2023-02-01T15:33:07;11.40;99.90
42339;DHT22;27993;45.392;10.918;2023-02-01T15:35:44;11.20;99.90
42339;DHT22;27993;45.392;10.918;2023-02-01T15:46:18;10.60;99.90
42339;DHT22;27993;45.392;10.918;2023-02-01T15:48:52;10.60;99.90
42339;DHT22;27993;45.392;10.918;2023-02-01T15:51:27;10.60;99.90
42339;DHT22;27993;45.392;10.918;2023-02-01T15:54:03;10.70;99.90
42339;DHT22;27993;45.392;10.918;2023-02-01T15:56:39;10.70;99.90
42339;DHT22;27993;45.392;10.918;2023-02-01T15:59:16;10.60;99.90
42339;DHT22;27993;45.392;10.918;2023-02-01T16:01:48;10.40;99.90
42339;DHT22;27993;45.392;10.918;2023-02-01T16:04:27;10.30;99.90
42339;DHT22;27993;45.392;10.918;2023-02-01T16:07:02;10.10;99.90
42339;DHT22;27993;45.392;10.918;2023-02-01T16:09:40;9.40;99.90
42339;DHT22;27993;45.392;10.918;2023-02-01T16:14:57;9.40;99.90
42339;DHT22;27993;45.392;10.918;2023-02-01T16:17:28;9.40;99.90
42339;DHT22;27993;45.392;10.918;2023-02-01T16:19:58;9.40;99.90
42339;DHT22;27993;45.392;10.918;2023-02-01T16:22:29;9.40;99.90
42339;DHT22;27993;45.392;10.918;2023-02-01T16:25:00;9.10;99.90
42339;DHT22;27993;45.392;10.918;2023-02-01T16:27:32;9.10;99.90
42339;DHT22;27993;45.392;10.918;2023-02-01T16:30:03;8.80;99.90
42339;DHT22;27993;45.392;10.918;2023-02-01T16:32:33;8.80;99.90
42339;DHT22;27993;45.392;10.918;2023-02-01T16:38:14;8.90;99.90
42339;DHT22;27993;45.392;10.918;2023-02-01T16:40:46;9.00;99.90
42339;DHT22;27993;45.392;10.918;2023-02-01T16:43:19;9.00;99.90
42339;DHT22;27993;45.392;10.918;2023-02-01T16:45:53;8.90;99.90
42339;DHT22;27993;45.392;10.918;2023-02-01T16:48:33;8.80;99.90
42339;DHT22;27993;45.392;10.918;2023-02-01T16:51:09;8.70;99.90
42339;DHT22;27993;45.392;10.918;2023-02-01T16:53:41;8.70;99.90
42339;DHT22;27993;45.392;10.918;2023-02-01T16:56:22;8.60;99.90
42339;DHT22;27993;45.392;10.918;2023-02-01T16:58:52;8.50;99.90
42339;DHT22;27993;45.392;10.918;2023-02-01T17:01:25;8.50;99.90
42339;DHT22;27993;45.392;10.918;2023-02-01T17:03:56;8.50;99.90
42339;DHT22;27993;45.392;10.918;2023-02-01T17:06:26;8.30;99.90
42339;DHT22;27993;45.392;10.918;2023-02-01T17:09:05;8.20;99.90
42339;DHT22;27993;45.392;10.918;2023-02-01T17:11:36;8.10;99.90
42339;DHT22;27993;45.392;10.918;2023-02-01T17:14:17;8.00;99.90
42339;DHT22;27993;45.392;10.918;2023-02-01T17:16:49;7.50;99.90
42339;DHT22;27993;45.392;10.918;2023-02-01T17:19:21;7.50;99.90
42339;DHT22;27993;45.392;10.918;2023-02-01T17:21:56;7.60;99.90
42339;DHT22;27993;45.392;10.918;2023-02-01T17:24:30;7.60;99.90
42339;DHT22;27993;45.392;10.918;2023-02-01T17:27:01;7.50;99.90
42339;DHT22;27993;45.392;10.918;2023-02-01T17:29:33;7.50;99.90
42339;DHT22;27993;45.392;10.918;2023-02-01T17:32:04;7.60;99.90
42339;DHT22;27993;45.392;10.918;2023-02-01T17:34:35;7.60;99.90
42339;DHT22;27993;45.392;10.918;2023-02-01T17:37:08;7.60;99.90
42339;DHT22;27993;45.392;10.918;2023-02-01T17:39:45;7.50;99.90
42339;DHT22;27993;45.392;10.918;2023-02-01T17:42:26;7.50;99.90
42339;DHT22;27993;45.392;10.918;2023-02-01T17:45:00;7.50;99.90
42339;DHT22;27993;45.392;10.918;2023-02-01T17:47:31;7.50;99.90
42339;DHT22;27993;45.392;10.918;2023-02-01T17:50:03;7.50;99.90
42339;DHT22;27993;45.392;10.918;2023-02-01T17:52:34;7.40;99.90
42339;DHT22;27993;45.392;10.918;2023-02-01T17:55:16;7.30;99.90
42339;DHT22;27993;45.392;10.918;2023-02-01T17:57:47;7.20;99.90
42339;DHT22;27993;45.392;10.918;2023-02-01T18:00:18;7.20;99.90
42339;DHT22;27993;45.392;10.918;2023-02-01T18:02:49;7.10;99.90
42339;DHT22;27993;45.392;10.918;2023-02-01T18:05:24;7.10;99.90
42339;DHT22;27993;45.392;10.918;2023-02-01T18:07:55;7.20;99.90
42339;DHT22;27993;45.392;10.918;2023-02-01T18:10:26;7.20;99.90
42339;DHT22;27993;45.392;10.918;2023-02-01T18:12:57;7.20;99.90
42339;DHT22;27993;45.392;10.918;2023-02-01T18:15:29;7.10;99.90
42339;DHT22;27993;45.392;10.918;2023-02-01T18:18:02;7.00;99.90
42339;DHT22;27993;45.392;10.918;2023-02-01T18:20:33;6.80;99.90
42339;DHT22;27993;45.392;10.918;2023-02-01T18:23:05;6.50;99.90
42339;DHT22;27993;45.392;10.918;2023-02-01T18:25:36;6.60;99.90
42339;DHT22;27993;45.392;10.918;2023-02-01T18:28:08;6.70;99.90
42339;DHT22;27993;45.392;10.918;2023-02-01T18:30:39;6.40;99.90
42339;DHT22;27993;45.392;10.918;2023-02-01T18:33:15;6.50;99.90
42339;DHT22;27993;45.392;10.918;2023-02-01T18:35:46;6.50;99.90
42339;DHT22;27993;45.392;10.918;2023-02-01T18:38:17;6.60;99.90
42339;DHT22;27993;45.392;10.918;2023-02-01T18:40:52;6.80;99.90
42339;DHT22;27993;45.392;10.918;2023-02-01T18:43:23;6.80;99.90
42339;DHT22;27993;45.392;10.918;2023-02-01T18:45:55;6.80;99.90
42339;DHT22;27993;45.392;10.918;2023-02-01T18:48:26;6.90;99.90